createdAt,value
2023-12-04T00:00:32.865Z,96994.25
2023-12-04T00:03:00.338Z,96993.81
2023-12-04T00:05:27.084Z,96977.56
2023-12-04T00:07:54.125Z,96985.28
2023-12-04T00:10:22.241Z,96985.56
2023-12-04T00:12:48.968Z,96971.47
2023-12-04T00:15:15.783Z,96974.94
2023-12-04T00:17:42.589Z,96970.75
2023-12-04T00:20:09.941Z,96964.84
2023-12-04T00:22:36.666Z,96963.31
2023-12-04T00:25:04.492Z,96955.78
2023-12-04T00:27:32.607Z,96947.34
2023-12-04T00:29:59.320Z,96935.53
2023-12-04T00:32:26.089Z,96939.00
2023-12-04T00:34:52.870Z,96944.53
2023-12-04T00:37:19.599Z,96933.72
2023-12-04T00:39:46.421Z,96931.09
2023-12-04T00:42:13.174Z,96920.13
2023-12-04T00:44:41.290Z,96923.56
2023-12-04T00:47:08.027Z,96920.31
2023-12-04T00:49:34.973Z,96909.78
2023-12-04T00:52:01.772Z,96908.78
2023-12-04T00:54:28.504Z,96907.25
2023-12-04T00:56:55.260Z,96893.81
2023-12-04T00:59:22.022Z,96888.56
2023-12-04T01:01:50.138Z,96886.38
2023-12-04T01:04:17.012Z,96887.00
2023-12-04T01:06:43.755Z,96887.81
2023-12-04T01:09:10.555Z,96889.81
2023-12-04T01:11:37.257Z,96888.47
2023-12-04T01:14:03.946Z,96896.34
2023-12-04T01:16:30.633Z,96888.19
2023-12-04T01:18:58.721Z,96880.75
2023-12-04T01:21:25.479Z,96881.66
2023-12-04T01:23:52.320Z,96890.81
2023-12-04T01:26:18.990Z,96891.16
2023-12-04T01:28:45.780Z,96889.34
2023-12-04T01:31:12.501Z,96889.81
2023-12-04T01:33:39.244Z,96877.81
2023-12-04T01:36:08.549Z,96884.56
2023-12-04T01:38:35.268Z,96896.81
2023-12-04T01:41:01.994Z,96891.38
2023-12-04T01:43:28.724Z,96892.63
2023-12-04T01:45:55.493Z,96900.34
2023-12-04T01:48:22.355Z,96891.81
2023-12-04T01:50:49.100Z,96902.34
2023-12-04T01:53:17.227Z,96899.72
2023-12-04T01:55:43.940Z,96895.91
2023-12-04T01:58:10.697Z,96892.16
2023-12-04T02:00:37.491Z,96887.00
2023-12-04T02:03:04.255Z,96887.53
2023-12-04T02:05:30.985Z,96873.00
2023-12-04T02:07:58.042Z,96876.47
2023-12-04T02:10:26.205Z,96873.19
2023-12-04T02:12:53.032Z,96871.47
2023-12-04T02:15:19.792Z,96865.13
2023-12-04T02:17:46.591Z,96866.19
2023-12-04T02:20:14.040Z,96867.47
2023-12-04T02:22:40.840Z,96859.13
2023-12-04T02:25:14.535Z,96853.59
2023-12-04T02:27:50.577Z,96851.84
2023-12-04T02:30:18.653Z,96850.03
2023-12-04T02:32:46.669Z,96853.28
2023-12-04T02:35:13.621Z,96842.41
2023-12-04T02:37:40.279Z,96824.59
2023-12-04T02:40:09.785Z,96820.91
2023-12-04T02:42:36.461Z,96828.16
2023-12-04T02:45:03.523Z,96823.53
2023-12-04T02:47:30.395Z,96826.22
2023-12-04T02:49:57.366Z,96826.97
2023-12-04T02:52:24.029Z,96828.09
2023-12-04T02:54:50.816Z,96833.38
2023-12-04T02:57:18.896Z,96824.81
2023-12-04T02:59:45.668Z,96816.44
2023-12-04T03:02:12.388Z,96810.44
2023-12-04T03:04:39.119Z,96797.09
2023-12-04T03:07:05.837Z,96791.50
2023-12-04T03:09:47.964Z,96787.88
2023-12-04T03:12:16.355Z,96792.75
2023-12-04T03:14:44.379Z,96794.41
2023-12-04T03:17:11.196Z,96787.13
2023-12-04T03:19:38.015Z,96779.34
2023-12-04T03:22:08.102Z,96771.75
2023-12-04T03:24:34.896Z,96767.50
2023-12-04T03:27:01.643Z,96770.13
2023-12-04T03:29:28.426Z,96769.94
2023-12-04T03:31:56.475Z,96776.09
2023-12-04T03:34:23.259Z,96770.00
2023-12-04T03:36:50.019Z,96765.88
2023-12-04T03:39:16.784Z,96761.78
2023-12-04T03:41:43.444Z,96764.25
2023-12-04T03:44:12.834Z,96760.34
2023-12-04T03:46:39.573Z,96753.72
2023-12-04T03:49:07.806Z,96755.97
2023-12-04T03:51:34.586Z,96753.25
2023-12-04T03:54:01.402Z,96745.75
2023-12-04T03:56:28.103Z,96748.81
2023-12-04T03:58:54.898Z,96745.19
2023-12-04T04:01:21.621Z,96750.19
2023-12-04T04:03:48.462Z,96748.19
2023-12-04T04:06:16.659Z,96745.81
2023-12-04T04:08:43.536Z,96747.88
2023-12-04T04:11:10.209Z,96743.22
2023-12-04T04:13:36.931Z,96745.72
2023-12-04T04:16:04.112Z,96741.09
2023-12-04T04:18:31.090Z,96741.53
2023-12-04T04:20:57.836Z,96747.22
2023-12-04T04:23:25.912Z,96743.53
2023-12-04T04:25:52.677Z,96739.50
2023-12-04T04:28:19.469Z,96739.31
2023-12-04T04:30:46.245Z,96740.69
2023-12-04T04:33:12.994Z,96738.06
2023-12-04T04:35:39.835Z,96734.66
2023-12-04T04:38:06.526Z,96730.84
2023-12-04T04:40:34.658Z,96720.69
2023-12-04T04:43:01.764Z,96715.06
2023-12-04T04:45:28.539Z,96707.47
2023-12-04T04:47:55.459Z,96699.13
2023-12-04T04:50:22.114Z,96695.72
2023-12-04T04:52:48.990Z,96705.50
2023-12-04T04:55:45.825Z,96699.06
2023-12-04T04:58:03.926Z,96703.28
2023-12-04T05:00:30.625Z,96705.75
2023-12-04T05:02:57.366Z,96697.41
2023-12-04T05:05:24.057Z,96699.75
2023-12-04T05:07:50.845Z,96687.34
2023-12-04T05:10:17.566Z,96688.63
2023-12-04T05:12:44.519Z,96706.13
2023-12-04T05:15:12.592Z,96690.28
2023-12-04T05:17:39.453Z,96695.78
2023-12-04T05:20:07.675Z,96674.50
2023-12-04T05:22:35.215Z,96674.34
2023-12-04T05:25:01.990Z,96661.19
2023-12-04T05:27:28.765Z,96659.91
2023-12-04T05:29:55.435Z,96671.94
2023-12-04T05:32:23.497Z,96671.44
2023-12-04T05:34:50.261Z,96681.88
2023-12-04T05:37:17.060Z,96682.78
2023-12-04T05:39:43.839Z,96686.72
2023-12-04T05:42:10.575Z,96690.34
2023-12-04T05:44:37.283Z,96680.16
2023-12-04T05:47:04.115Z,96676.56
2023-12-04T05:49:32.224Z,96670.53
2023-12-04T05:51:59.027Z,96653.34
2023-12-04T05:54:25.749Z,96641.41
2023-12-04T05:56:52.424Z,96636.00
2023-12-04T05:59:19.160Z,96619.00
2023-12-04T06:01:45.873Z,96602.75
2023-12-04T06:04:12.660Z,96587.34
2023-12-04T06:06:40.752Z,96603.72
2023-12-04T06:09:07.556Z,96599.53
2023-12-04T06:11:34.308Z,96601.41
2023-12-04T06:14:01.020Z,96592.34
2023-12-04T06:16:27.727Z,96591.50
2023-12-04T06:18:54.555Z,96592.94
2023-12-04T06:21:21.380Z,96611.75
2023-12-04T06:23:50.152Z,96630.34
2023-12-04T06:26:17.392Z,96632.09
2023-12-04T06:28:44.784Z,96627.94
2023-12-04T06:31:13.063Z,96607.78
2023-12-04T06:33:40.427Z,96603.00
2023-12-04T06:36:08.472Z,96587.44
2023-12-04T06:38:35.209Z,96604.28
2023-12-04T06:41:04.156Z,96588.06
2023-12-04T06:43:31.578Z,96586.84
2023-12-04T06:45:59.348Z,96573.91
2023-12-04T06:48:26.727Z,96563.75
2023-12-04T06:50:53.438Z,96563.72
2023-12-04T06:53:20.128Z,96575.53
2023-12-04T06:55:47.016Z,96568.44
2023-12-04T06:58:15.158Z,96596.31
2023-12-04T07:00:42.240Z,96582.53
2023-12-04T07:03:08.960Z,96575.28
2023-12-04T07:05:35.736Z,96571.84
2023-12-04T07:08:02.456Z,96566.81
2023-12-04T07:10:30.182Z,96562.72
2023-12-04T07:12:59.077Z,96568.22
2023-12-04T07:15:27.103Z,96591.94
2023-12-04T07:17:54.830Z,96602.25
2023-12-04T07:20:23.516Z,96590.00
2023-12-04T07:22:50.264Z,96589.03
2023-12-04T07:25:16.976Z,96591.88
2023-12-04T07:27:43.694Z,96564.50
2023-12-04T07:30:11.217Z,96560.88
2023-12-04T07:32:39.406Z,96555.81
2023-12-04T07:35:07.619Z,96549.72
2023-12-04T07:37:34.358Z,96556.84
2023-12-04T07:40:01.167Z,96563.97
2023-12-04T07:42:27.969Z,96561.56
2023-12-04T07:44:54.720Z,96558.53
2023-12-04T07:47:21.412Z,96551.66
2023-12-04T07:49:49.517Z,96547.16
2023-12-04T07:52:16.315Z,96534.81
2023-12-04T07:54:43.468Z,96545.19
2023-12-04T07:57:10.206Z,96543.56
2023-12-04T07:59:36.948Z,96543.16
2023-12-04T08:02:03.904Z,96540.94
2023-12-04T08:04:30.638Z,96546.00
2023-12-04T08:06:58.798Z,96546.78
2023-12-04T08:09:25.521Z,96558.53
2023-12-04T08:11:53.825Z,96552.88
2023-12-04T08:14:21.874Z,96552.50
2023-12-04T08:16:48.905Z,96565.50
2023-12-04T08:19:15.918Z,96570.94
2023-12-04T08:21:42.698Z,96578.44
2023-12-04T08:24:10.743Z,96593.47
2023-12-04T08:26:37.405Z,96591.38
2023-12-04T08:29:04.089Z,96587.91
2023-12-04T08:31:30.836Z,96603.94
2023-12-04T08:33:57.665Z,96602.72
2023-12-04T08:36:24.450Z,96598.47
2023-12-04T08:38:51.307Z,96594.25
2023-12-04T08:41:19.339Z,96577.22
2023-12-04T08:43:46.188Z,96563.44
2023-12-04T08:46:13.806Z,96552.09
2023-12-04T08:48:41.085Z,96555.75
2023-12-04T08:51:08.159Z,96557.19
2023-12-04T08:53:34.930Z,96553.13
2023-12-04T08:56:01.672Z,96558.00
2023-12-04T08:58:29.816Z,96557.41
2023-12-04T09:00:56.592Z,96547.66
2023-12-04T09:03:29.598Z,96546.25
2023-12-04T09:05:59.517Z,96536.28
2023-12-04T09:08:34.495Z,96535.06
2023-12-04T09:11:18.342Z,96519.03
2023-12-04T09:13:51.428Z,96524.09
2023-12-04T09:16:18.403Z,96529.38
2023-12-04T09:18:45.469Z,96537.72
2023-12-04T09:21:12.311Z,96550.09
2023-12-04T09:23:39.040Z,96547.66
2023-12-04T09:26:06.051Z,96550.91
2023-12-04T09:28:34.459Z,96552.13
2023-12-04T09:31:02.642Z,96545.44
2023-12-04T09:33:29.550Z,96549.91
2023-12-04T09:35:56.345Z,96552.94
2023-12-04T09:38:23.079Z,96557.81
2023-12-04T09:40:49.768Z,96563.50
2023-12-04T09:43:16.586Z,96566.13
2023-12-04T09:45:43.355Z,96549.28
2023-12-04T09:48:11.646Z,96546.44
2023-12-04T09:50:38.612Z,96551.72
2023-12-04T09:53:05.374Z,96560.44
2023-12-04T09:55:32.118Z,96561.88
2023-12-04T09:57:59.078Z,96563.28
2023-12-04T10:00:25.899Z,96572.03
2023-12-04T10:02:53.437Z,96565.53
2023-12-04T10:05:21.727Z,96564.31
2023-12-04T10:07:52.942Z,96562.47
2023-12-04T10:10:19.714Z,96560.25
2023-12-04T10:12:46.651Z,96566.75
2023-12-04T10:15:13.589Z,96571.81
2023-12-04T10:17:41.024Z,96562.69
2023-12-04T10:20:09.849Z,96556.19
2023-12-04T10:22:38.257Z,96554.97
2023-12-04T10:25:14.913Z,96545.03
2023-12-04T10:27:41.759Z,96548.88
2023-12-04T10:30:09.342Z,96535.25
2023-12-04T10:32:37.390Z,96534.84
2023-12-04T10:35:04.562Z,96530.59
2023-12-04T10:37:31.283Z,96521.84
2023-12-04T10:39:59.327Z,96515.56
2023-12-04T10:42:26.462Z,96512.72
2023-12-04T10:44:53.208Z,96509.88
2023-12-04T10:47:20.617Z,96511.09
2023-12-04T10:49:47.374Z,96505.81
2023-12-04T10:52:14.154Z,96502.75
2023-12-04T10:54:40.914Z,96505.19
2023-12-04T10:57:09.041Z,96502.56
2023-12-04T10:59:37.663Z,96493.81
2023-12-04T11:02:06.061Z,96498.50
2023-12-04T11:04:32.884Z,96492.22
2023-12-04T11:07:00.154Z,96488.75
2023-12-04T11:09:27.602Z,96483.50
2023-12-04T11:11:57.479Z,96478.19
2023-12-04T11:14:26.323Z,96477.00
2023-12-04T11:16:56.993Z,96475.16
2023-12-04T11:19:27.263Z,96480.25
2023-12-04T11:21:54.164Z,96479.66
2023-12-04T11:24:20.906Z,96470.94
2023-12-04T11:26:47.691Z,96466.03
2023-12-04T11:29:14.370Z,96459.13
2023-12-04T11:31:42.698Z,96456.28
2023-12-04T11:34:09.506Z,96457.88
2023-12-04T11:36:36.381Z,96453.81
2023-12-04T11:39:03.217Z,96451.34
2023-12-04T11:41:30.680Z,96450.94
2023-12-04T11:43:57.809Z,96446.88
2023-12-04T11:46:26.053Z,96440.75
2023-12-04T11:48:56.306Z,96440.34
2023-12-04T11:51:46.269Z,96439.50
2023-12-04T11:54:14.818Z,96431.38
2023-12-04T11:56:41.501Z,96428.97
2023-12-04T11:59:08.380Z,96425.09
2023-12-04T12:01:35.212Z,96425.59
2023-12-04T12:04:05.615Z,96424.63
2023-12-04T12:06:32.787Z,96420.19
2023-12-04T12:08:59.559Z,96414.72
2023-12-04T12:11:26.407Z,96410.22
2023-12-04T12:13:54.156Z,96405.53
2023-12-04T12:16:21.533Z,96400.25
2023-12-04T12:18:48.884Z,96401.84
2023-12-04T12:21:17.822Z,96399.00
2023-12-04T12:23:44.710Z,96395.47
2023-12-04T12:26:11.609Z,96382.19
2023-12-04T12:28:38.334Z,96382.06
2023-12-04T12:31:05.655Z,96382.84
2023-12-04T12:33:32.451Z,96377.38
2023-12-04T12:36:03.253Z,96374.47
2023-12-04T12:38:36.760Z,96366.31
2023-12-04T12:41:12.435Z,96359.00
2023-12-04T12:43:58.529Z,96357.78
2023-12-04T12:50:26.823Z,96345.78
2023-12-04T12:52:53.662Z,96338.41
2023-12-04T12:55:25.140Z,96341.06
2023-12-04T12:57:51.874Z,96332.19
2023-12-04T13:00:18.863Z,96325.88
2023-12-04T13:02:45.806Z,96327.50
2023-12-04T13:05:12.562Z,96328.13
2023-12-04T13:07:39.321Z,96330.53
2023-12-04T13:10:07.150Z,96324.50
2023-12-04T13:12:35.388Z,96327.31
2023-12-04T13:15:02.307Z,96326.69
2023-12-04T13:17:29.096Z,96329.88
2023-12-04T13:19:55.817Z,96325.44
2023-12-04T13:22:22.492Z,96326.66
2023-12-04T13:24:49.179Z,96328.44
2023-12-04T13:27:15.940Z,96325.22
2023-12-04T13:29:43.964Z,96324.47
2023-12-04T13:32:10.686Z,96328.09
2023-12-04T13:34:37.597Z,96323.00
2023-12-04T13:37:04.371Z,96323.56
2023-12-04T13:39:31.051Z,96321.38
2023-12-04T13:41:57.796Z,96317.34
2023-12-04T13:44:24.463Z,96320.53
2023-12-04T13:46:52.505Z,96319.66
2023-12-04T13:49:19.204Z,96311.72
2023-12-04T13:51:46.014Z,96298.72
2023-12-04T13:54:12.709Z,96293.50
2023-12-04T13:56:39.428Z,96287.34
2023-12-04T13:59:06.138Z,96279.00
2023-12-04T14:01:32.953Z,96283.47
2023-12-04T14:04:01.139Z,96285.88
2023-12-04T14:06:28.117Z,96285.06
2023-12-04T14:08:57.035Z,96285.88
2023-12-04T14:11:24.390Z,96282.19
2023-12-04T14:13:51.083Z,96280.91
2023-12-04T14:16:17.820Z,96276.06
2023-12-04T14:18:44.518Z,96272.78
2023-12-04T14:21:12.557Z,96265.88
2023-12-04T14:23:39.218Z,96272.75
2023-12-04T14:26:06.164Z,96277.81
2023-12-04T14:28:40.541Z,96269.44
2023-12-04T14:31:10.018Z,96262.75
2023-12-04T14:33:39.162Z,96264.81
2023-12-04T14:36:08.057Z,96261.56
2023-12-04T14:38:36.088Z,96249.34
2023-12-04T14:41:03.050Z,96252.78
2023-12-04T14:43:29.751Z,96253.81
2023-12-04T14:45:56.468Z,96251.16
2023-12-04T14:48:23.246Z,96245.44
2023-12-04T14:50:49.989Z,96232.44
2023-12-04T14:53:16.686Z,96225.94
2023-12-04T14:55:45.066Z,96224.09
2023-12-04T14:58:11.782Z,96232.03
2023-12-04T15:00:38.608Z,96233.63
2023-12-04T15:03:05.561Z,96231.34
2023-12-04T15:05:32.407Z,96234.78
2023-12-04T15:07:59.768Z,96233.38
2023-12-04T15:10:28.023Z,96216.06
2023-12-04T15:12:56.107Z,96211.75
2023-12-04T15:15:23.104Z,96219.84
2023-12-04T15:17:49.838Z,96212.25
2023-12-04T15:20:16.641Z,96208.53
2023-12-04T15:22:43.405Z,96212.78
2023-12-04T15:25:10.115Z,96203.81
2023-12-04T15:27:36.867Z,96203.44
2023-12-04T15:30:06.258Z,96211.97
2023-12-04T15:32:33.094Z,96203.03
2023-12-04T15:35:02.146Z,96193.84
2023-12-04T15:37:29.876Z,96187.97
2023-12-04T15:39:56.591Z,96185.53
2023-12-04T15:42:23.395Z,96184.94
2023-12-04T15:44:50.097Z,96183.56
2023-12-04T15:47:18.149Z,96175.13
2023-12-04T15:49:44.967Z,96180.25
2023-12-04T15:52:11.776Z,96184.50
2023-12-04T15:54:38.528Z,96179.00
2023-12-04T15:57:05.579Z,96174.97
2023-12-04T15:59:32.270Z,96165.94
2023-12-04T16:01:59.108Z,96169.25
2023-12-04T16:04:27.669Z,96165.56
2023-12-04T16:06:57.172Z,96157.88
2023-12-04T16:09:23.981Z,96148.31
2023-12-04T16:11:50.867Z,96147.66
2023-12-04T16:14:17.576Z,96153.16
2023-12-04T16:16:44.350Z,96156.25
2023-12-04T16:19:11.183Z,96155.81
2023-12-04T16:21:39.847Z,96146.63
2023-12-04T16:24:06.941Z,96144.00
2023-12-04T16:26:33.671Z,96140.31
2023-12-04T16:29:02.016Z,96129.66
2023-12-04T16:31:28.966Z,96134.09
2023-12-04T16:33:55.758Z,96134.81
2023-12-04T16:36:23.170Z,96120.56
2023-12-04T16:38:51.264Z,96125.63
2023-12-04T16:41:17.989Z,96123.22
2023-12-04T16:43:44.710Z,96111.97
2023-12-04T16:46:11.558Z,96110.59
2023-12-04T16:48:38.302Z,96105.88
2023-12-04T16:51:05.718Z,96096.19
2023-12-04T16:53:32.644Z,96084.50
2023-12-04T16:56:00.930Z,96091.78
2023-12-04T16:58:27.616Z,96097.06
2023-12-04T17:00:54.417Z,96098.47
2023-12-04T17:03:22.070Z,96090.16
2023-12-04T17:05:51.067Z,96094.44
2023-12-04T17:08:18.543Z,96094.19
2023-12-04T17:10:45.971Z,96087.31
2023-12-04T17:13:14.032Z,96098.53
2023-12-04T17:15:40.888Z,96092.00
2023-12-04T17:18:07.713Z,96094.78
2023-12-04T17:20:34.483Z,96086.19
2023-12-04T17:23:01.172Z,96083.31
2023-12-04T17:25:27.924Z,96073.91
2023-12-04T17:27:55.418Z,96077.00
2023-12-04T17:30:24.031Z,96079.44
2023-12-04T17:32:50.852Z,96078.63
2023-12-04T17:35:17.784Z,96086.69
2023-12-04T17:37:45.904Z,96084.63
2023-12-04T17:40:13.502Z,96079.94
2023-12-04T17:42:41.050Z,96079.69
2023-12-04T17:45:09.519Z,96083.16
2023-12-04T17:47:37.617Z,96081.75
2023-12-04T17:50:04.971Z,96085.66
2023-12-04T17:52:31.659Z,96075.38
2023-12-04T17:54:58.627Z,96067.59
2023-12-04T17:57:25.859Z,96065.69
2023-12-04T17:59:53.409Z,96069.34
2023-12-04T18:02:22.073Z,96063.63
2023-12-04T18:04:51.936Z,96067.88
2023-12-04T18:07:18.693Z,96058.09
2023-12-04T18:09:45.430Z,96064.19
2023-12-04T18:12:12.517Z,96063.84
2023-12-04T18:14:39.281Z,96054.88
2023-12-04T18:17:06.014Z,96064.63
2023-12-04T18:19:32.853Z,96059.72
2023-12-04T18:22:00.944Z,96065.81
2023-12-04T18:24:27.769Z,96065.81
2023-12-04T18:26:55.023Z,96069.72
2023-12-04T18:29:22.486Z,96073.97
2023-12-04T18:31:49.758Z,96075.59
2023-12-04T18:34:22.640Z,96073.38
2023-12-04T18:36:50.098Z,96062.59
2023-12-04T18:39:18.180Z,96071.81
2023-12-04T18:41:45.495Z,96065.66
2023-12-04T18:44:12.760Z,96064.19
2023-12-04T18:46:39.484Z,96068.88
2023-12-04T18:49:06.398Z,96066.81
2023-12-04T18:51:34.616Z,96062.47
2023-12-04T18:54:02.108Z,96055.44
2023-12-04T18:56:30.261Z,96053.41
2023-12-04T18:58:57.024Z,96049.59
2023-12-04T19:01:23.825Z,96043.63
2023-12-04T19:03:50.810Z,96054.56
2023-12-04T19:06:17.761Z,96045.81
2023-12-04T19:08:44.501Z,96043.19
2023-12-04T19:11:11.258Z,96046.38
2023-12-04T19:13:39.337Z,96051.00
2023-12-04T19:16:06.698Z,96041.47
2023-12-04T19:18:35.524Z,96052.63
2023-12-04T19:21:03.638Z,96048.03
2023-12-04T19:23:30.536Z,96053.66
2023-12-04T19:25:57.311Z,96044.13
2023-12-04T19:28:24.059Z,96047.91
2023-12-04T19:30:52.214Z,96045.03
2023-12-04T19:33:25.664Z,96043.41
2023-12-04T19:35:55.620Z,96048.59
2023-12-04T19:38:23.535Z,96029.25
2023-12-04T19:40:50.346Z,96051.16
2023-12-04T19:43:17.090Z,96044.47
2023-12-04T19:45:45.893Z,96061.84
2023-12-04T19:48:14.140Z,96055.19
2023-12-04T19:50:41.046Z,96057.41
2023-12-04T19:53:07.807Z,96055.56
2023-12-04T19:55:34.576Z,96056.63
2023-12-04T19:58:01.289Z,96050.75
2023-12-04T20:00:28.093Z,96045.22
2023-12-04T20:02:54.893Z,96053.03
2023-12-04T20:05:23.994Z,96061.56
2023-12-04T20:07:50.832Z,96063.66
2023-12-04T20:10:17.579Z,96069.75
2023-12-04T20:12:44.287Z,96070.22
2023-12-04T20:15:11.372Z,96069.16
2023-12-04T20:17:38.213Z,96065.94
2023-12-04T20:20:08.473Z,96071.47
2023-12-04T20:22:36.681Z,96057.31
2023-12-04T20:25:03.751Z,96060.66
2023-12-04T20:27:30.544Z,96050.75
2023-12-04T20:29:57.330Z,96061.09
2023-12-04T20:32:24.174Z,96049.25
2023-12-04T20:34:53.626Z,96056.84
2023-12-04T20:37:20.380Z,96055.25
2023-12-04T20:39:48.507Z,96069.41
2023-12-04T20:42:15.334Z,96070.88
2023-12-04T20:44:42.158Z,96064.91
2023-12-04T20:47:08.846Z,96074.00
2023-12-04T20:49:35.739Z,96076.66
2023-12-04T20:52:02.522Z,96074.00
2023-12-04T20:54:29.442Z,96073.44
2023-12-04T20:56:57.856Z,96066.94
2023-12-04T20:59:24.598Z,96066.50
2023-12-04T21:01:51.820Z,96062.22
2023-12-04T21:04:18.901Z,96069.94
2023-12-04T21:06:45.750Z,96066.38
2023-12-04T21:09:12.568Z,96066.84
2023-12-04T21:11:39.324Z,96067.31
2023-12-04T21:14:07.495Z,96060.97
2023-12-04T21:16:34.526Z,96058.88
2023-12-04T21:19:02.585Z,96061.31
2023-12-04T21:21:29.536Z,96051.03
2023-12-04T21:23:56.804Z,96048.28
2023-12-04T21:26:23.535Z,96048.75
2023-12-04T21:28:50.352Z,96051.63
2023-12-04T21:31:18.477Z,96058.41
2023-12-04T21:33:45.330Z,96050.81
2023-12-04T21:36:12.389Z,96056.47
2023-12-04T21:38:39.107Z,96054.28
2023-12-04T21:41:06.056Z,96053.91
2023-12-04T21:43:33.823Z,96054.03
2023-12-04T21:46:02.155Z,96055.19
2023-12-04T21:48:30.408Z,96054.59
2023-12-04T21:50:57.467Z,96054.69
2023-12-04T21:53:24.258Z,96056.03
2023-12-04T21:55:50.974Z,96062.06
2023-12-04T21:58:17.677Z,96064.00
2023-12-04T22:00:44.431Z,96077.16
2023-12-04T22:03:11.262Z,96066.53
2023-12-04T22:05:39.672Z,96080.91
2023-12-04T22:08:06.626Z,96077.94
2023-12-04T22:10:33.404Z,96087.75
2023-12-04T22:13:00.193Z,96073.56
2023-12-04T22:15:27.138Z,96074.38
2023-12-04T22:17:53.908Z,96082.44
2023-12-04T22:20:21.956Z,96080.00
2023-12-04T22:22:50.057Z,96078.94
2023-12-04T22:25:19.798Z,96082.78
2023-12-04T22:27:46.645Z,96081.84
2023-12-04T22:30:13.942Z,96092.44
2023-12-04T22:32:41.011Z,96074.78
2023-12-04T22:35:08.172Z,96073.97
2023-12-04T22:37:35.069Z,96083.06
2023-12-04T22:40:05.900Z,96080.75
2023-12-04T22:42:33.210Z,96070.03
2023-12-04T22:45:00.034Z,96071.53
2023-12-04T22:47:27.179Z,96078.56
2023-12-04T22:49:53.996Z,96087.22
2023-12-04T22:52:20.797Z,96094.47
2023-12-04T22:54:47.623Z,96094.84
2023-12-04T22:57:15.752Z,96089.16
2023-12-04T22:59:42.544Z,96090.66
2023-12-04T23:02:09.784Z,96086.16
2023-12-04T23:04:36.560Z,96098.72
2023-12-04T23:07:03.621Z,96090.88
2023-12-04T23:09:30.338Z,96085.31
2023-12-04T23:11:57.141Z,96083.22
2023-12-04T23:14:27.247Z,96077.63
2023-12-04T23:16:53.932Z,96090.28
2023-12-04T23:19:20.676Z,96084.50
2023-12-04T23:21:47.506Z,96078.81
2023-12-04T23:24:14.527Z,96084.31
2023-12-04T23:26:41.307Z,96081.13
2023-12-04T23:29:07.969Z,96075.78
2023-12-04T23:31:36.053Z,96079.72
2023-12-04T23:34:03.232Z,96076.91
2023-12-04T23:36:30.029Z,96079.56
2023-12-04T23:38:56.702Z,96074.84
2023-12-04T23:41:23.511Z,96065.03
2023-12-04T23:43:50.217Z,96066.31
2023-12-04T23:46:16.973Z,96075.25
2023-12-04T23:48:45.209Z,96062.22
2023-12-04T23:51:12.095Z,96062.44
2023-12-04T23:53:38.810Z,96057.22
2023-12-04T23:56:06.619Z,96063.34
2023-12-04T23:58:33.524Z,96063.69
